createdAt,value
2018-04-06T00:01:48.399Z,4.13
2018-04-06T00:04:15.890Z,4.31
2018-04-06T00:06:43.346Z,4.23
2018-04-06T00:09:10.736Z,4.18
2018-04-06T00:11:38.123Z,4.18
2018-04-06T00:14:05.627Z,4.14
2018-04-06T00:16:33.019Z,4.04
2018-04-06T00:19:00.418Z,4.12
2018-04-06T00:21:27.814Z,4.27
2018-04-06T00:23:55.202Z,4.20
2018-04-06T00:26:22.598Z,3.99
2018-04-06T00:28:49.986Z,3.89
2018-04-06T00:31:18.126Z,4.00
2018-04-06T00:33:45.515Z,4.05
2018-04-06T00:36:12.912Z,3.95
2018-04-06T00:38:40.299Z,3.82
2018-04-06T00:41:07.729Z,3.88
2018-04-06T00:43:35.187Z,3.91
2018-04-06T00:46:02.582Z,3.88
2018-04-06T00:50:56.706Z,3.91
2018-04-06T00:53:36.195Z,3.95
2018-04-06T00:56:03.632Z,3.98
2018-04-06T00:58:31.964Z,3.91
2018-04-06T01:00:59.346Z,3.78
2018-04-06T01:03:26.734Z,3.73
2018-04-06T01:05:54.131Z,3.74
2018-04-06T01:08:21.631Z,3.62
2018-04-06T01:10:49.027Z,3.59
2018-04-06T01:13:16.426Z,3.54
2018-04-06T01:15:43.813Z,3.68
2018-04-06T01:18:11.257Z,3.67
2018-04-06T01:20:38.643Z,3.64
2018-04-06T01:23:06.070Z,3.76
2018-04-06T01:25:33.459Z,3.56
2018-04-06T01:28:00.855Z,3.55
2018-04-06T01:30:28.238Z,3.38
2018-04-06T01:32:55.631Z,3.49
2018-04-06T01:35:23.019Z,3.47
2018-04-06T01:37:50.416Z,3.49
2018-04-06T01:40:17.794Z,3.43
2018-04-06T01:42:45.197Z,3.35
2018-04-06T01:45:12.670Z,3.46
2018-04-06T01:47:40.143Z,3.40
2018-04-06T01:50:07.587Z,3.39
2018-04-06T01:52:35.053Z,3.25
2018-04-06T01:55:02.434Z,3.32
2018-04-06T01:57:29.834Z,3.45
2018-04-06T01:59:57.267Z,3.40
2018-04-06T02:02:24.614Z,3.48
2018-04-06T02:04:51.999Z,3.53
2018-04-06T02:07:19.395Z,3.40
2018-04-06T02:09:46.807Z,3.34
2018-04-06T02:12:14.198Z,3.46
2018-04-06T02:14:41.595Z,3.49
2018-04-06T02:17:09.615Z,3.51
2018-04-06T02:19:37.062Z,3.39
2018-04-06T02:22:04.466Z,3.42
2018-04-06T02:24:31.905Z,3.45
2018-04-06T02:26:59.275Z,3.21
2018-04-06T02:29:26.671Z,3.16
2018-04-06T02:31:54.160Z,3.19
2018-04-06T02:34:21.559Z,3.01
2018-04-06T02:36:48.942Z,3.07
2018-04-06T02:39:17.183Z,3.06
2018-04-06T02:41:44.598Z,2.90
2018-04-06T02:44:11.982Z,2.83
2018-04-06T02:46:39.376Z,2.85
2018-04-06T02:49:06.790Z,2.97
2018-04-06T02:51:34.161Z,2.93
2018-04-06T02:54:01.568Z,2.98
2018-04-06T02:56:28.943Z,3.02
2018-04-06T02:58:56.338Z,3.01
2018-04-06T03:01:23.724Z,2.96
2018-04-06T03:03:51.124Z,2.97
2018-04-06T03:06:18.514Z,2.86
2018-04-06T03:08:45.914Z,2.81
2018-04-06T03:11:13.306Z,2.79
2018-04-06T03:13:40.703Z,2.74
2018-04-06T03:16:08.091Z,2.69
2018-04-06T03:18:35.486Z,2.66
2018-04-06T03:21:02.978Z,2.68
2018-04-06T03:23:30.370Z,2.74
2018-04-06T03:25:57.759Z,2.73
2018-04-06T03:28:25.155Z,2.69
2018-04-06T03:30:52.611Z,2.68
2018-04-06T03:33:19.991Z,2.54
2018-04-06T03:35:47.391Z,2.64
2018-04-06T03:38:14.775Z,2.65
2018-04-06T03:40:42.158Z,2.71
2018-04-06T03:43:10.162Z,2.70
2018-04-06T03:45:37.560Z,2.74
2018-04-06T03:48:04.956Z,2.71
2018-04-06T03:50:32.351Z,2.75
2018-04-06T03:52:59.738Z,2.70
2018-04-06T03:55:27.134Z,2.71
2018-04-06T03:57:54.614Z,2.72
2018-04-06T04:00:22.014Z,2.75
2018-04-06T04:02:49.427Z,2.79
2018-04-06T04:05:17.723Z,2.75
2018-04-06T04:07:45.106Z,2.74
2018-04-06T04:10:12.494Z,2.74
2018-04-06T04:12:39.898Z,2.72
2018-04-06T04:15:07.280Z,2.70
2018-04-06T04:17:34.666Z,2.69
2018-04-06T04:20:02.072Z,2.64
2018-04-06T04:22:29.459Z,2.54
2018-04-06T04:24:56.867Z,2.53
2018-04-06T04:27:24.243Z,2.50
2018-04-06T04:29:51.710Z,2.45
2018-04-06T04:32:19.166Z,2.45
2018-04-06T04:34:46.574Z,2.36
2018-04-06T04:37:13.961Z,2.35
2018-04-06T04:39:41.342Z,2.33
2018-04-06T04:42:08.744Z,2.33
2018-04-06T04:44:36.130Z,2.35
2018-04-06T04:47:03.590Z,2.35
2018-04-06T04:49:31.047Z,2.36
2018-04-06T04:51:58.502Z,2.41
2018-04-06T04:54:25.958Z,2.42
2018-04-06T04:56:53.415Z,2.37
2018-04-06T04:59:20.822Z,2.37
2018-04-06T05:01:48.331Z,2.44
2018-04-06T05:04:15.710Z,2.47
2018-04-06T05:06:43.114Z,2.49
2018-04-06T05:09:10.587Z,2.56
2018-04-06T05:11:37.978Z,2.63
2018-04-06T05:14:05.377Z,2.74
2018-04-06T05:16:32.766Z,2.93
2018-04-06T05:19:00.152Z,3.26
2018-04-06T05:21:27.568Z,3.80
2018-04-06T05:23:55.028Z,4.53
2018-04-06T05:26:22.426Z,5.47
2018-04-06T05:28:49.826Z,6.53
2018-04-06T05:31:17.219Z,7.66
2018-04-06T05:33:44.638Z,8.78
2018-04-06T05:36:12.039Z,9.89
2018-04-06T05:38:39.534Z,10.92
2018-04-06T05:41:06.850Z,11.98
2018-04-06T05:43:34.250Z,13.06
2018-04-06T05:46:01.639Z,14.13
2018-04-06T05:48:29.036Z,15.06
2018-04-06T05:50:56.422Z,16.01
2018-04-06T05:53:23.878Z,16.92
2018-04-06T05:55:51.334Z,17.72
2018-04-06T05:58:18.775Z,18.60
2018-04-06T06:00:46.155Z,19.47
2018-04-06T06:03:13.551Z,20.34
2018-04-06T06:05:40.960Z,21.11
2018-04-06T06:08:08.355Z,21.80
2018-04-06T06:10:36.743Z,22.51
2018-04-06T06:13:04.138Z,23.16
2018-04-06T06:15:31.599Z,23.86
2018-04-06T06:17:58.997Z,24.33
2018-04-06T06:20:26.387Z,25.03
2018-04-06T06:22:53.783Z,25.72
2018-04-06T06:25:21.174Z,26.37
2018-04-06T06:27:48.570Z,27.03
2018-04-06T06:30:15.968Z,27.61
2018-04-06T06:32:43.385Z,28.04
2018-04-06T06:35:10.841Z,28.48
2018-04-06T06:37:38.231Z,28.76
2018-04-06T06:40:05.656Z,29.25
2018-04-06T06:42:33.102Z,29.56
2018-04-06T06:45:00.567Z,29.61
2018-04-06T06:47:28.018Z,29.80
2018-04-06T06:49:55.543Z,29.97
2018-04-06T06:52:23.037Z,30.29
2018-04-06T06:54:50.437Z,29.98
2018-04-06T06:57:17.827Z,30.38
2018-04-06T06:59:45.303Z,30.98
2018-04-06T07:02:13.114Z,31.32
2018-04-06T07:04:40.569Z,31.37
2018-04-06T07:07:08.027Z,31.62
2018-04-06T07:09:35.486Z,31.88
2018-04-06T07:12:02.874Z,31.58
2018-04-06T07:14:30.296Z,31.37
2018-04-06T07:16:57.682Z,30.20
2018-04-06T07:19:25.078Z,30.53
2018-04-06T07:21:52.467Z,30.65
2018-04-06T07:24:19.863Z,30.17
2018-04-06T07:26:48.186Z,30.11
2018-04-06T07:29:15.646Z,30.81
2018-04-06T07:31:43.043Z,30.59
2018-04-06T07:34:10.463Z,30.98
2018-04-06T07:36:37.854Z,31.64
2018-04-06T07:39:06.152Z,31.59
2018-04-06T07:41:33.547Z,30.75
2018-04-06T07:44:00.955Z,30.89
2018-04-06T07:46:28.464Z,30.48
2018-04-06T07:48:55.918Z,30.45
2018-04-06T07:51:23.302Z,31.08
2018-04-06T07:53:50.699Z,31.17
2018-04-06T07:56:18.086Z,30.48
2018-04-06T07:58:45.700Z,30.76
2018-04-06T08:01:13.194Z,31.07
2018-04-06T08:03:40.591Z,30.56
2018-04-06T08:06:07.982Z,30.87
2018-04-06T08:08:35.374Z,30.85
2018-04-06T08:11:02.770Z,30.43
2018-04-06T08:13:30.220Z,30.27
2018-04-06T08:15:57.582Z,30.03
2018-04-06T08:18:24.978Z,29.36
2018-04-06T08:20:52.364Z,28.55
2018-04-06T08:23:19.763Z,28.68
2018-04-06T08:25:47.150Z,26.80
2018-04-06T08:28:15.477Z,26.39
2018-04-06T08:30:42.941Z,26.60
2018-04-06T08:33:10.399Z,25.76
2018-04-06T08:35:37.869Z,24.74
2018-04-06T08:38:05.255Z,22.84
2018-04-06T08:40:32.662Z,20.91
2018-04-06T08:43:00.084Z,20.94
2018-04-06T08:45:27.575Z,21.15
2018-04-06T08:47:55.139Z,21.44
2018-04-06T08:50:22.518Z,22.12
2018-04-06T08:52:49.906Z,21.55
2018-04-06T08:55:17.415Z,20.82
2018-04-06T08:57:44.836Z,20.49
2018-04-06T09:00:12.238Z,20.26
2018-04-06T09:02:39.645Z,20.97
2018-04-06T09:05:07.046Z,21.57
2018-04-06T09:07:34.542Z,21.47
2018-04-06T09:10:01.947Z,21.35
2018-04-06T09:12:29.355Z,21.24
2018-04-06T09:14:56.779Z,20.41
2018-04-06T09:17:24.158Z,20.19
2018-04-06T09:19:51.566Z,19.88
2018-04-06T09:22:18.981Z,18.96
2018-04-06T09:24:46.373Z,18.10
2018-04-06T09:27:13.767Z,17.35
2018-04-06T09:29:41.167Z,16.84
2018-04-06T09:32:08.553Z,16.51
2018-04-06T09:34:35.954Z,16.23
2018-04-06T09:37:03.424Z,16.14
2018-04-06T09:39:30.826Z,16.48
2018-04-06T09:41:58.214Z,16.95
2018-04-06T09:44:25.607Z,17.51
2018-04-06T09:46:53.039Z,17.71
2018-04-06T09:49:20.434Z,17.99
2018-04-06T09:51:47.823Z,17.85
2018-04-06T09:54:15.221Z,17.92
2018-04-06T09:56:42.623Z,18.30
2018-04-06T09:59:10.075Z,18.15
2018-04-06T10:01:37.555Z,17.55
2018-04-06T10:04:04.999Z,17.42
2018-04-06T10:06:32.382Z,17.11
2018-04-06T10:08:59.787Z,16.69
2018-04-06T10:11:27.199Z,16.62
2018-04-06T10:13:54.621Z,16.35
2018-04-06T10:16:22.070Z,16.16
2018-04-06T10:18:49.479Z,16.39
2018-04-06T10:21:16.870Z,16.40
2018-04-06T10:23:44.259Z,16.96
2018-04-06T10:26:11.655Z,16.58
2018-04-06T10:28:39.121Z,16.73
2018-04-06T10:31:06.574Z,16.92
2018-04-06T10:33:34.066Z,16.51
2018-04-06T10:36:01.465Z,16.48
2018-04-06T10:38:28.845Z,15.89
2018-04-06T10:40:56.298Z,16.10
2018-04-06T10:43:23.700Z,16.19
2018-04-06T10:45:51.867Z,16.69
2018-04-06T10:48:19.326Z,16.64
2018-04-06T10:50:46.822Z,16.71
2018-04-06T10:53:14.206Z,16.58
2018-04-06T10:55:41.600Z,16.45
2018-04-06T10:58:09.066Z,16.35
2018-04-06T11:00:36.480Z,16.49
2018-04-06T11:03:03.875Z,16.64
2018-04-06T11:05:31.266Z,16.10
2018-04-06T11:07:58.678Z,16.21
2018-04-06T11:10:26.139Z,16.22
2018-04-06T11:12:53.518Z,15.87
2018-04-06T11:15:20.920Z,15.85
2018-04-06T11:17:48.302Z,16.12
2018-04-06T11:20:15.766Z,15.75
2018-04-06T11:22:43.235Z,15.70
2018-04-06T11:25:10.625Z,15.43
2018-04-06T11:27:38.043Z,15.37
2018-04-06T11:30:05.519Z,15.46
2018-04-06T11:32:32.902Z,15.89
2018-04-06T11:35:00.290Z,16.02
2018-04-06T11:37:27.683Z,15.72
2018-04-06T11:39:55.122Z,15.00
2018-04-06T11:42:22.503Z,14.76
2018-04-06T11:44:49.907Z,15.13
2018-04-06T11:47:17.335Z,15.45
2018-04-06T11:49:45.649Z,15.78
2018-04-06T11:52:13.034Z,15.45
2018-04-06T11:54:40.462Z,15.28
2018-04-06T11:57:07.838Z,15.39
2018-04-06T11:59:35.279Z,15.63
2018-04-06T12:02:02.671Z,15.65
2018-04-06T12:04:30.055Z,15.89
2018-04-06T12:06:57.446Z,16.11
2018-04-06T12:09:24.905Z,16.24
2018-04-06T12:11:52.358Z,16.15
2018-04-06T12:14:19.747Z,15.83
2018-04-06T12:16:47.148Z,15.99
2018-04-06T12:19:14.627Z,15.89
2018-04-06T12:21:42.015Z,15.93
2018-04-06T12:24:09.430Z,16.22
2018-04-06T12:26:36.821Z,16.32
2018-04-06T12:29:04.206Z,16.47
2018-04-06T12:31:31.611Z,16.54
2018-04-06T12:33:59.010Z,16.25
2018-04-06T12:36:26.394Z,16.54
2018-04-06T12:38:54.419Z,16.80
2018-04-06T12:41:21.817Z,16.86
2018-04-06T12:43:49.197Z,16.74
2018-04-06T12:46:16.595Z,17.12
2018-04-06T12:48:43.983Z,17.53
2018-04-06T12:51:11.375Z,17.37
2018-04-06T12:53:38.811Z,17.26
2018-04-06T12:56:06.200Z,16.92
2018-04-06T12:58:33.590Z,16.40
2018-04-06T13:01:01.000Z,16.26
2018-04-06T13:03:28.390Z,16.49
2018-04-06T13:05:55.782Z,16.33
2018-04-06T13:08:23.171Z,16.82
2018-04-06T13:10:50.659Z,17.03
2018-04-06T13:13:18.323Z,17.16
2018-04-06T13:15:45.774Z,17.14
2018-04-06T13:18:13.250Z,17.43
2018-04-06T13:20:40.630Z,17.67
2018-04-06T13:23:08.038Z,17.74
2018-04-06T13:25:35.438Z,17.58
2018-04-06T13:28:02.823Z,17.13
2018-04-06T13:30:30.215Z,17.02
2018-04-06T13:32:57.667Z,16.95
2018-04-06T13:35:25.107Z,16.59
2018-04-06T13:37:52.495Z,16.34
2018-04-06T13:40:19.908Z,16.07
2018-04-06T13:42:47.314Z,16.00
2018-04-06T13:45:14.702Z,15.91
2018-04-06T13:47:42.094Z,15.65
2018-04-06T13:50:09.565Z,15.75
2018-04-06T13:52:36.963Z,15.77
2018-04-06T13:55:04.383Z,15.66
2018-04-06T13:57:31.847Z,15.70
2018-04-06T13:59:59.229Z,15.81
2018-04-06T14:02:26.654Z,15.99
2018-04-06T14:04:54.110Z,16.12
2018-04-06T14:07:21.564Z,16.27
2018-04-06T14:09:48.943Z,16.38
2018-04-06T14:12:16.379Z,16.21
2018-04-06T14:14:43.834Z,16.20
2018-04-06T14:17:11.230Z,16.15
2018-04-06T14:19:38.622Z,15.99
2018-04-06T14:22:06.007Z,15.73
2018-04-06T14:24:33.396Z,15.75
2018-04-06T14:27:00.806Z,15.78
2018-04-06T14:29:28.198Z,15.62
2018-04-06T14:31:55.595Z,15.46
2018-04-06T14:34:22.978Z,15.39
2018-04-06T14:36:50.366Z,15.66
2018-04-06T14:39:17.804Z,15.65
2018-04-06T14:41:45.222Z,15.44
2018-04-06T14:44:12.611Z,15.24
2018-04-06T14:46:40.063Z,15.19
2018-04-06T14:49:07.458Z,15.36
2018-04-06T14:51:34.852Z,15.36
2018-04-06T14:54:02.302Z,15.63
2018-04-06T14:56:29.766Z,15.83
2018-04-06T14:58:57.158Z,15.77
2018-04-06T15:01:24.584Z,15.81
2018-04-06T15:03:51.983Z,15.66
2018-04-06T15:06:19.378Z,15.55
2018-04-06T15:08:46.758Z,15.53
2018-04-06T15:11:14.156Z,15.75
2018-04-06T15:13:41.540Z,15.96
2018-04-06T15:16:09.011Z,15.81
2018-04-06T15:18:36.479Z,15.76
2018-04-06T15:21:03.863Z,15.76
2018-04-06T15:23:31.282Z,15.60
2018-04-06T15:25:58.678Z,15.52
2018-04-06T15:28:26.067Z,15.34
2018-04-06T15:30:53.553Z,15.41
2018-04-06T15:33:20.932Z,15.49
2018-04-06T15:35:48.341Z,15.33
2018-04-06T15:38:15.715Z,15.25
2018-04-06T15:40:43.110Z,15.06
2018-04-06T15:43:10.531Z,15.23
2018-04-06T15:45:37.939Z,15.21
2018-04-06T15:48:05.344Z,15.08
2018-04-06T15:50:32.731Z,14.90
2018-04-06T15:53:00.122Z,14.83
2018-04-06T15:55:27.616Z,14.86
2018-04-06T15:57:55.006Z,14.80
2018-04-06T16:00:22.399Z,14.67
2018-04-06T16:02:49.796Z,14.52
2018-04-06T16:05:17.200Z,14.53
2018-04-06T16:07:44.595Z,14.59
2018-04-06T16:10:12.092Z,14.71
2018-04-06T16:12:39.478Z,14.70
2018-04-06T16:15:06.863Z,14.53
2018-04-06T16:17:34.253Z,14.40
2018-04-06T16:20:01.634Z,14.37
2018-04-06T16:22:29.037Z,14.34
2018-04-06T16:24:56.427Z,14.43
2018-04-06T16:27:23.825Z,14.40
2018-04-06T16:29:51.210Z,14.45
2018-04-06T16:32:18.603Z,14.47
2018-04-06T16:34:45.988Z,14.43
2018-04-06T16:37:13.374Z,14.47
2018-04-06T16:39:40.770Z,14.36
2018-04-06T16:42:08.196Z,14.20
2018-04-06T16:44:35.591Z,14.05
2018-04-06T16:47:02.983Z,14.05
2018-04-06T16:49:30.402Z,14.11
2018-04-06T16:51:57.807Z,13.91
2018-04-06T16:54:25.279Z,13.99
2018-04-06T16:56:52.671Z,13.91
2018-04-06T16:59:20.063Z,13.84
2018-04-06T17:01:47.451Z,13.90
2018-04-06T17:04:14.910Z,13.79
2018-04-06T17:06:42.331Z,13.80
2018-04-06T17:09:09.719Z,13.69
2018-04-06T17:11:37.139Z,13.64
2018-04-06T17:14:04.519Z,13.56
2018-04-06T17:16:31.910Z,13.53
2018-04-06T17:18:59.333Z,13.71
2018-04-06T17:21:26.719Z,13.64
2018-04-06T17:23:54.113Z,13.70
2018-04-06T17:26:21.505Z,13.72
2018-04-06T17:28:48.897Z,13.68
2018-04-06T17:31:16.509Z,13.51
2018-04-06T17:33:43.913Z,13.28
2018-04-06T17:36:11.306Z,13.27
2018-04-06T17:38:38.860Z,13.16
2018-04-06T17:41:06.353Z,13.09
2018-04-06T17:43:33.771Z,13.06
2018-04-06T17:46:01.190Z,13.03
2018-04-06T17:48:28.606Z,13.08
2018-04-06T17:50:55.974Z,12.99
2018-04-06T17:53:23.398Z,12.78
2018-04-06T17:55:50.867Z,12.82
2018-04-06T17:58:18.315Z,12.82
2018-04-06T18:00:45.699Z,12.62
2018-04-06T18:03:13.094Z,12.41
2018-04-06T18:05:40.582Z,12.38
2018-04-06T18:08:08.043Z,12.31
2018-04-06T18:10:35.436Z,12.21
2018-04-06T18:13:02.848Z,12.23
2018-04-06T18:15:30.312Z,12.08
2018-04-06T18:17:57.833Z,12.09
2018-04-06T18:20:25.237Z,12.05
2018-04-06T18:22:52.626Z,11.97
2018-04-06T18:25:20.039Z,11.85
2018-04-06T18:27:47.435Z,11.66
2018-04-06T18:30:14.852Z,11.49
2018-04-06T18:32:42.243Z,11.56
2018-04-06T18:35:09.663Z,11.43
2018-04-06T18:37:37.055Z,11.40
2018-04-06T18:40:04.458Z,11.33
2018-04-06T18:42:31.858Z,11.21
2018-04-06T18:44:59.247Z,11.15
2018-04-06T18:47:26.670Z,11.13
2018-04-06T18:49:54.090Z,11.03
2018-04-06T18:52:21.668Z,11.02
2018-04-06T18:54:49.102Z,10.91
2018-04-06T18:57:16.515Z,10.91
2018-04-06T18:59:43.924Z,10.82
2018-04-06T19:02:11.380Z,10.75
2018-04-06T19:04:38.843Z,10.81
2018-04-06T19:07:06.287Z,10.72
2018-04-06T19:09:33.675Z,10.67
2018-04-06T19:12:01.065Z,10.55
2018-04-06T19:14:28.486Z,10.51
2018-04-06T19:16:55.887Z,10.48
2018-04-06T19:19:23.281Z,10.38
2018-04-06T19:21:50.678Z,10.31
2018-04-06T19:24:18.065Z,10.35
2018-04-06T19:26:45.675Z,10.24
2018-04-06T19:29:13.098Z,10.34
2018-04-06T19:31:40.506Z,10.20
2018-04-06T19:34:07.924Z,10.15
2018-04-06T19:36:35.383Z,10.07
2018-04-06T19:39:02.763Z,10.06
2018-04-06T19:41:30.147Z,10.02
2018-04-06T19:43:57.543Z,9.94
2018-04-06T19:46:24.935Z,9.93
2018-04-06T19:48:52.311Z,9.89
2018-04-06T19:51:19.707Z,9.97
2018-04-06T19:53:47.154Z,9.84
2018-04-06T19:56:14.544Z,9.79
2018-04-06T19:58:41.970Z,9.75
2018-04-06T20:01:09.419Z,9.72
2018-04-06T20:03:36.810Z,9.62
2018-04-06T20:06:04.218Z,9.60
2018-04-06T20:08:31.695Z,9.54
2018-04-06T20:10:59.075Z,9.52
2018-04-06T20:13:26.494Z,9.46
2018-04-06T20:15:53.950Z,9.39
2018-04-06T20:18:21.349Z,9.29
2018-04-06T20:20:48.755Z,9.29
2018-04-06T20:23:16.219Z,9.36
2018-04-06T20:25:43.604Z,9.27
2018-04-06T20:28:10.994Z,9.24
2018-04-06T20:30:38.485Z,9.10
2018-04-06T20:33:05.878Z,9.07
2018-04-06T20:35:33.291Z,9.07
2018-04-06T20:38:00.683Z,9.01
2018-04-06T20:40:28.073Z,9.00
2018-04-06T20:42:55.558Z,8.98
2018-04-06T20:45:23.037Z,8.94
2018-04-06T20:47:50.417Z,8.92
2018-04-06T20:50:17.831Z,8.98
2018-04-06T20:52:45.219Z,8.97
2018-04-06T20:55:12.610Z,8.92
2018-04-06T20:57:40.007Z,8.93
2018-04-06T21:00:07.455Z,8.88
2018-04-06T21:02:34.861Z,8.91
2018-04-06T21:05:02.244Z,8.85
2018-04-06T21:07:29.715Z,8.90
2018-04-06T21:09:57.174Z,8.99
2018-04-06T21:12:24.566Z,8.92
2018-04-06T21:14:52.731Z,8.86
2018-04-06T21:17:20.124Z,8.86
2018-04-06T21:19:48.433Z,8.81
2018-04-06T21:22:15.831Z,8.77
2018-04-06T21:24:43.246Z,8.77
2018-04-06T21:27:10.643Z,8.73
2018-04-06T21:29:38.026Z,8.75
2018-04-06T21:32:05.418Z,8.66
2018-04-06T21:34:32.805Z,8.62
2018-04-06T21:37:00.226Z,8.61
2018-04-06T21:39:27.606Z,8.56
2018-04-06T21:41:54.999Z,8.60
2018-04-06T21:44:22.392Z,8.58
2018-04-06T21:46:49.843Z,8.53
2018-04-06T21:49:17.231Z,8.53
2018-04-06T21:51:44.619Z,8.52
2018-04-06T21:54:12.114Z,8.55
2018-04-06T21:56:39.503Z,8.53
2018-04-06T21:59:06.890Z,8.51
2018-04-06T22:01:34.379Z,8.45
2018-04-06T22:04:01.835Z,8.41
2018-04-06T22:06:29.219Z,8.42
2018-04-06T22:08:56.647Z,8.41
2018-04-06T22:11:24.094Z,8.40
2018-04-06T22:13:51.490Z,8.43
2018-04-06T22:16:18.875Z,8.40
2018-04-06T22:18:46.363Z,8.35
2018-04-06T22:21:13.831Z,8.35
2018-04-06T22:23:41.232Z,8.37
2018-04-06T22:26:08.607Z,8.39
2018-04-06T22:28:36.005Z,8.32
2018-04-06T22:31:03.446Z,8.26
2018-04-06T22:33:30.902Z,8.26
2018-04-06T22:35:58.277Z,8.25
2018-04-06T22:38:25.679Z,8.26
2018-04-06T22:40:53.051Z,8.27
2018-04-06T22:43:20.443Z,8.26
2018-04-06T22:45:47.879Z,8.19
2018-04-06T22:48:15.275Z,8.17
2018-04-06T22:50:42.691Z,8.15
2018-04-06T22:53:10.148Z,8.11
2018-04-06T22:55:37.526Z,8.11
2018-04-06T22:58:04.935Z,8.07
2018-04-06T23:00:32.322Z,8.04
2018-04-06T23:02:59.762Z,8.02
2018-04-06T23:05:27.141Z,7.97
2018-04-06T23:07:54.531Z,7.95
2018-04-06T23:10:21.918Z,8.02
2018-04-06T23:12:49.382Z,8.12
2018-04-06T23:15:16.776Z,8.15
2018-04-06T23:17:44.169Z,8.15
2018-04-06T23:20:11.551Z,8.17
2018-04-06T23:22:38.938Z,8.17
2018-04-06T23:25:07.182Z,8.15
2018-04-06T23:27:34.567Z,8.15
2018-04-06T23:30:01.955Z,8.17
2018-04-06T23:32:29.335Z,8.23
2018-04-06T23:34:56.725Z,8.24
2018-04-06T23:37:24.109Z,8.27
2018-04-06T23:39:51.510Z,8.31
2018-04-06T23:42:18.894Z,8.33
2018-04-06T23:44:46.289Z,8.35
2018-04-06T23:47:13.799Z,8.43
2018-04-06T23:49:41.186Z,8.43
2018-04-06T23:52:08.587Z,8.47
2018-04-06T23:54:35.981Z,8.56
2018-04-06T23:57:03.363Z,8.54
2018-04-06T23:59:30.756Z,8.48
